Aérodrome :
LOGIN :

S'inscrire | Disclaimer

   EN    FR    IT 

 










Légende :    VFR   VFR Marginal   IFR   IFR Intensif   IFR Très Intensif
Visi : 
Plafond : 
>= 8 km
>= 3000ft
5 à 8 km
1000 à 3000 ft
1500m à 5 km
500 à 1000 ft
800 à 1500m
200 à 500 ft
< 800m
< 200 ft
Symboles :   Orages  Brouillard  Fortes neiges  Fortes précipitations  Vent > 20 kt
SIGMETs :   Divers  Orages  Givrage  Turbulence  Onde Orograph.  Cendres Volcan.






- Altitude de l'aérodrome : 1411 ft
- Code IATA : ZHI


LSZG - Grenchen

DERNIER METAR :
  • 071320Z 23007KT 9999 FEW030 BKN041 11/06 Q1019 NOSIG

METARs EXPIRÉS :
  • 071250Z 24009KT 9999 FEW030 BKN041 11/05 Q1019 NOSIG
  • 071220Z 24012KT 9999 FEW030 BKN041 11/06 Q1019 NOSIG
  • 071150Z 23010KT 9999 FEW030 BKN041 10/06 Q1019 NOSIG
  • 071120Z 23003KT 9999 SCT036 BKN041 BKN050 10/06 Q1020 NOSIG
  • 071050Z 21003KT 9999 BKN045 10/06 Q1020 NOSIG

TAF TAF LSZG
Valide du 07 à 12h jusqu'au 07 à 21h UTC


071125Z 0712/0721 23004KT 9999 BKN045
ATIS : +41 32 396 96 33



MET'MAP, la Météo Aéronautique d'un coup d'oeil ! - Copyright ORBIFLY Décembre 2007 - Disclaimer

ORBIFLY MET'MAP TEAM :

Programmation & Développement : Alexandra Zaïnal
Sur une idée originale de : Baudouin d'Aumeries
Assistance à la programmation : Marc-Olivier Méhu
Soutien technique & logistique : Manuel Goepfert

Contact : metmap@orbifly.com




SOURCES & CREDITS :

   NOAA